createdAt,value
2022-08-18T00:00:20.678Z,0.00
2022-08-18T00:01:20.453Z,0.10
2022-08-18T00:02:23.930Z,0.10
2022-08-18T00:03:53.157Z,0.00
2022-08-18T00:04:34.870Z,0.00
2022-08-18T00:05:20.400Z,0.10
2022-08-18T00:06:20.386Z,0.00
2022-08-18T00:07:20.374Z,0.10
2022-08-18T00:08:20.360Z,0.10
2022-08-18T00:09:20.346Z,0.10
2022-08-18T00:10:20.337Z,0.00
2022-08-18T00:11:20.319Z,0.00
2022-08-18T00:12:20.306Z,0.00
2022-08-18T00:13:20.291Z,0.10
2022-08-18T00:14:22.597Z,0.10
2022-08-18T00:15:20.267Z,0.00
2022-08-18T00:16:20.254Z,0.00
2022-08-18T00:17:20.240Z,0.10
2022-08-18T00:18:20.227Z,0.00
2022-08-18T00:19:20.216Z,0.00
2022-08-18T00:20:20.201Z,0.10
2022-08-18T00:21:20.186Z,0.10
2022-08-18T00:22:20.194Z,0.10
2022-08-18T00:23:20.160Z,0.00
2022-08-18T00:24:20.147Z,0.00
2022-08-18T00:25:20.133Z,0.00
2022-08-18T00:26:20.121Z,0.10
2022-08-18T00:27:20.104Z,0.10
2022-08-18T00:28:20.096Z,0.00
2022-08-18T00:29:20.079Z,0.00
2022-08-18T00:30:20.066Z,0.00
2022-08-18T00:31:20.052Z,0.10
2022-08-18T00:32:20.040Z,0.00
2022-08-18T00:33:20.024Z,0.00
2022-08-18T00:34:20.012Z,0.00
2022-08-18T00:35:19.998Z,0.00
2022-08-18T00:36:19.987Z,0.10
2022-08-18T00:37:19.971Z,0.00
2022-08-18T00:38:24.940Z,0.00
2022-08-18T00:39:19.946Z,0.10
2022-08-18T00:40:19.986Z,0.00
2022-08-18T00:41:19.918Z,0.00
2022-08-18T00:42:28.985Z,0.00
2022-08-18T00:43:19.894Z,0.00
2022-08-18T00:44:19.881Z,0.10
2022-08-18T00:45:19.867Z,0.00
2022-08-18T00:46:19.861Z,0.00
2022-08-18T00:47:41.617Z,0.10
2022-08-18T00:48:19.832Z,0.10
2022-08-18T00:49:19.817Z,0.00
2022-08-18T00:50:19.805Z,0.00
2022-08-18T00:51:19.792Z,0.00
2022-08-18T00:52:19.780Z,0.00
2022-08-18T00:53:19.770Z,0.00
2022-08-18T00:54:19.754Z,0.10
2022-08-18T00:55:19.741Z,0.00
2022-08-18T00:56:19.731Z,0.00
2022-08-18T00:57:19.715Z,0.00
2022-08-18T00:58:19.704Z,0.00
2022-08-18T00:59:19.689Z,0.00
2022-08-18T01:00:19.679Z,0.00
2022-08-18T01:01:19.706Z,0.00
2022-08-18T01:02:19.653Z,0.00
2022-08-18T01:03:24.741Z,0.00
2022-08-18T01:04:19.627Z,0.10
2022-08-18T01:05:19.613Z,0.00
2022-08-18T01:06:19.599Z,0.00
2022-08-18T01:07:19.589Z,0.10
2022-08-18T01:08:28.849Z,0.00
2022-08-18T01:09:19.560Z,0.00
2022-08-18T01:10:19.547Z,0.00
2022-08-18T01:11:19.534Z,0.00
2022-08-18T01:12:27.970Z,0.00
2022-08-18T01:13:19.510Z,0.00
2022-08-18T01:14:19.496Z,0.00
2022-08-18T01:15:28.444Z,0.10
2022-08-18T01:16:19.472Z,0.00
2022-08-18T01:17:19.460Z,0.10
2022-08-18T01:18:19.445Z,0.00
2022-08-18T01:19:19.434Z,0.10
2022-08-18T01:20:19.422Z,0.10
2022-08-18T01:21:19.408Z,0.00
2022-08-18T01:22:19.394Z,0.00
2022-08-18T01:23:19.382Z,0.00
2022-08-18T01:24:21.834Z,0.00
2022-08-18T01:25:19.359Z,0.00
2022-08-18T01:26:19.344Z,0.00
2022-08-18T01:27:19.337Z,0.00
2022-08-18T01:28:19.319Z,0.00
2022-08-18T01:29:19.606Z,0.00
2022-08-18T01:30:19.297Z,0.00
2022-08-18T01:31:19.283Z,0.00
2022-08-18T01:32:19.267Z,0.10
2022-08-18T01:33:19.258Z,0.10
2022-08-18T01:34:19.243Z,0.00
2022-08-18T01:35:19.244Z,0.00
2022-08-18T01:36:19.216Z,0.00
2022-08-18T01:37:19.204Z,0.00
2022-08-18T01:38:19.192Z,0.10
2022-08-18T01:41:17.439Z,0.00
2022-08-18T01:41:22.839Z,0.10
2022-08-18T01:41:28.453Z,0.00
2022-08-18T01:42:19.138Z,0.00
2022-08-18T01:43:19.128Z,0.10
2022-08-18T01:44:19.113Z,0.00
2022-08-18T01:45:19.105Z,0.10
2022-08-18T01:46:19.086Z,0.00
2022-08-18T01:47:19.077Z,0.00
2022-08-18T01:48:19.061Z,0.00
2022-08-18T01:49:19.048Z,0.00
2022-08-18T01:50:19.036Z,0.00
2022-08-18T01:51:19.025Z,0.10
2022-08-18T01:52:19.006Z,0.10
2022-08-18T01:53:18.996Z,0.00
2022-08-18T01:54:18.980Z,0.00
2022-08-18T01:55:19.049Z,0.00
2022-08-18T01:56:18.957Z,0.00
2022-08-18T01:57:18.945Z,0.00
2022-08-18T01:58:18.928Z,0.00
2022-08-18T01:59:18.916Z,0.00
2022-08-18T02:00:18.905Z,0.00
2022-08-18T02:01:18.940Z,0.00
2022-08-18T02:02:18.998Z,0.00
2022-08-18T02:03:18.866Z,0.10
2022-08-18T02:04:36.022Z,0.10
2022-08-18T02:05:20.835Z,0.00
2022-08-18T02:06:18.821Z,0.00
2022-08-18T02:07:18.813Z,0.10
2022-08-18T02:08:18.799Z,0.00
2022-08-18T02:09:23.744Z,0.00
2022-08-18T02:10:18.770Z,0.00
2022-08-18T02:11:18.755Z,0.00
2022-08-18T02:12:18.742Z,0.00
2022-08-18T02:13:18.731Z,0.00
2022-08-18T02:14:18.713Z,0.10
2022-08-18T02:15:18.702Z,0.00
2022-08-18T02:16:18.688Z,0.00
2022-08-18T02:17:18.675Z,0.10
2022-08-18T02:18:35.388Z,0.10
2022-08-18T02:19:18.649Z,0.00
2022-08-18T02:20:18.639Z,0.00
2022-08-18T02:21:19.064Z,0.10
2022-08-18T02:22:18.607Z,0.00
2022-08-18T02:23:18.595Z,0.10
2022-08-18T02:24:18.582Z,0.00
2022-08-18T02:25:18.571Z,0.00
2022-08-18T02:26:18.558Z,0.00
2022-08-18T02:27:18.545Z,0.10
2022-08-18T02:28:18.536Z,0.10
2022-08-18T02:29:18.520Z,0.10
2022-08-18T02:30:18.506Z,0.00
2022-08-18T02:31:18.496Z,0.00
2022-08-18T02:32:18.481Z,0.00
2022-08-18T02:33:18.471Z,0.00
2022-08-18T02:34:18.458Z,0.00
2022-08-18T02:35:18.444Z,0.10
2022-08-18T02:36:18.431Z,0.00
2022-08-18T02:37:18.419Z,0.10
2022-08-18T02:38:18.406Z,0.10
2022-08-18T02:39:18.396Z,0.10
2022-08-18T02:40:18.440Z,0.00
2022-08-18T02:41:18.370Z,0.00
2022-08-18T02:42:18.394Z,0.00
2022-08-18T02:43:18.342Z,0.00
2022-08-18T02:44:18.331Z,0.00
2022-08-18T02:45:18.318Z,0.00
2022-08-18T02:46:18.305Z,0.00
2022-08-18T02:47:18.379Z,0.00
2022-08-18T02:48:18.280Z,0.00
2022-08-18T02:49:18.269Z,0.10
2022-08-18T02:50:18.256Z,0.10
2022-08-18T02:51:18.247Z,0.00
2022-08-18T02:52:18.231Z,0.10
2022-08-18T02:53:18.219Z,0.00
2022-08-18T02:54:18.206Z,0.00
2022-08-18T02:55:18.194Z,0.00
2022-08-18T02:56:18.180Z,0.10
2022-08-18T02:57:18.168Z,0.10
2022-08-18T02:58:18.154Z,0.00
2022-08-18T02:59:18.142Z,0.10
2022-08-18T03:00:18.804Z,0.00
2022-08-18T03:01:18.216Z,0.00
2022-08-18T03:02:18.101Z,0.00
2022-08-18T03:03:18.090Z,0.10
2022-08-18T03:04:18.076Z,0.10
2022-08-18T03:05:18.062Z,0.00
2022-08-18T03:06:18.048Z,0.10
2022-08-18T03:07:18.035Z,0.10
2022-08-18T03:08:18.022Z,0.00
2022-08-18T03:09:18.008Z,0.00
2022-08-18T03:10:33.026Z,0.10
2022-08-18T03:11:17.980Z,0.10
2022-08-18T03:12:17.972Z,0.10
2022-08-18T03:13:17.954Z,0.10
2022-08-18T03:14:17.940Z,0.00
2022-08-18T03:15:17.933Z,0.00
2022-08-18T03:17:17.902Z,0.00
2022-08-18T03:18:17.888Z,0.00
2022-08-18T03:19:17.882Z,0.10
2022-08-18T03:20:17.862Z,0.00
2022-08-18T03:21:17.850Z,0.00
2022-08-18T03:22:27.627Z,0.00
2022-08-18T03:23:17.825Z,0.00
2022-08-18T03:24:22.642Z,0.10
2022-08-18T03:25:17.799Z,0.00
2022-08-18T03:26:17.784Z,0.00
2022-08-18T03:27:17.773Z,0.00
2022-08-18T03:28:17.759Z,0.00
2022-08-18T03:29:17.748Z,0.00
2022-08-18T03:30:17.732Z,0.00
2022-08-18T03:31:17.721Z,0.10
2022-08-18T03:32:17.704Z,0.10
2022-08-18T03:33:17.694Z,0.00
2022-08-18T03:34:17.679Z,0.10
2022-08-18T03:35:17.668Z,0.00
2022-08-18T03:36:17.655Z,0.00
2022-08-18T03:37:17.644Z,0.10
2022-08-18T03:38:17.635Z,0.00
2022-08-18T03:39:17.618Z,0.10
2022-08-18T03:40:17.709Z,0.10
2022-08-18T03:41:17.592Z,0.00
2022-08-18T03:42:17.578Z,0.00
2022-08-18T03:43:50.173Z,0.10
2022-08-18T03:44:17.553Z,0.00
2022-08-18T03:45:18.132Z,0.00
2022-08-18T03:46:17.528Z,0.10
2022-08-18T03:47:17.521Z,0.00
2022-08-18T03:48:17.503Z,0.00
2022-08-18T03:49:17.491Z,0.00
2022-08-18T03:50:17.478Z,0.00
2022-08-18T03:51:17.466Z,0.10
2022-08-18T03:52:17.453Z,0.00
2022-08-18T03:53:17.441Z,0.10
2022-08-18T03:54:17.427Z,0.00
2022-08-18T03:55:17.415Z,0.00
2022-08-18T03:56:17.782Z,0.10
2022-08-18T03:57:17.388Z,0.10
2022-08-18T03:58:17.379Z,0.10
2022-08-18T03:59:17.362Z,0.10
2022-08-18T04:00:17.349Z,0.10
2022-08-18T04:01:25.286Z,0.10
2022-08-18T04:02:19.320Z,0.00
2022-08-18T04:03:17.309Z,0.00
2022-08-18T04:04:17.297Z,0.10
2022-08-18T04:05:17.283Z,0.00
2022-08-18T04:06:17.267Z,0.00
2022-08-18T04:07:17.375Z,0.00
2022-08-18T04:08:17.242Z,0.00
2022-08-18T04:09:17.230Z,0.00
2022-08-18T04:10:19.593Z,0.10
2022-08-18T04:11:17.203Z,0.10
2022-08-18T04:12:17.566Z,0.00
2022-08-18T04:13:17.174Z,0.00
2022-08-18T04:14:17.161Z,0.00
2022-08-18T04:15:17.149Z,0.00
2022-08-18T04:16:17.133Z,0.00
2022-08-18T04:17:17.124Z,0.00
2022-08-18T04:18:17.107Z,0.10
2022-08-18T04:19:23.151Z,0.10
2022-08-18T04:20:17.082Z,0.10
2022-08-18T04:21:17.071Z,0.00
2022-08-18T04:22:17.142Z,0.00
2022-08-18T04:23:17.045Z,0.00
2022-08-18T04:24:17.030Z,0.00
2022-08-18T04:25:17.020Z,0.10
2022-08-18T04:26:19.036Z,0.00
2022-08-18T04:27:16.995Z,0.10
2022-08-18T04:28:16.979Z,0.00
2022-08-18T04:29:16.968Z,0.00
2022-08-18T04:30:16.953Z,0.00
2022-08-18T04:31:16.943Z,0.00
2022-08-18T04:32:16.928Z,0.70
2022-08-18T04:33:16.916Z,0.10
2022-08-18T04:34:16.902Z,0.10
2022-08-18T04:35:16.891Z,0.00
2022-08-18T04:36:20.477Z,0.00
2022-08-18T04:37:16.866Z,0.10
2022-08-18T04:38:16.849Z,0.00
2022-08-18T04:39:16.836Z,0.00
2022-08-18T04:40:20.224Z,0.10
2022-08-18T04:41:18.808Z,0.40
2022-08-18T04:42:16.796Z,0.00
2022-08-18T04:43:16.785Z,0.50
2022-08-18T04:44:16.771Z,0.00
2022-08-18T04:45:16.759Z,0.10
2022-08-18T04:46:16.745Z,0.00
2022-08-18T04:47:16.733Z,0.10
2022-08-18T04:48:16.718Z,0.10
2022-08-18T04:49:16.705Z,0.00
2022-08-18T04:50:16.690Z,0.00
2022-08-18T04:52:36.775Z,0.10
2022-08-18T04:52:37.511Z,0.40
2022-08-18T04:53:16.650Z,2.40
2022-08-18T04:54:16.654Z,0.30
2022-08-18T04:55:16.625Z,0.40
2022-08-18T04:56:16.609Z,0.30
2022-08-18T04:57:16.597Z,0.30
2022-08-18T04:58:16.581Z,0.30
2022-08-18T04:59:16.571Z,0.40
2022-08-18T05:00:16.558Z,0.40
2022-08-18T05:01:16.596Z,0.30
2022-08-18T05:02:16.529Z,0.30
2022-08-18T05:03:16.516Z,0.20
2022-08-18T05:04:16.502Z,5.69
2022-08-18T05:05:16.489Z,5.40
2022-08-18T05:06:16.474Z,5.19
2022-08-18T05:07:16.460Z,5.40
2022-08-18T05:08:16.446Z,5.09
2022-08-18T05:09:23.022Z,5.40
2022-08-18T05:10:18.419Z,4.90
2022-08-18T05:11:16.406Z,5.19
2022-08-18T05:12:16.401Z,4.80
2022-08-18T05:13:16.379Z,4.30
2022-08-18T05:14:16.368Z,4.59
2022-08-18T05:15:16.354Z,4.50
2022-08-18T05:16:27.227Z,4.69
2022-08-18T05:17:16.327Z,4.40
2022-08-18T05:18:16.313Z,4.00
2022-08-18T05:19:16.297Z,3.90
2022-08-18T05:20:16.286Z,3.50
2022-08-18T05:21:16.273Z,3.70
2022-08-18T05:22:16.260Z,3.59
2022-08-18T05:23:16.244Z,3.40
2022-08-18T05:24:16.233Z,3.29
2022-08-18T05:25:16.223Z,2.79
2022-08-18T05:26:16.206Z,3.00
2022-08-18T05:27:16.191Z,3.00
2022-08-18T05:28:16.181Z,2.70
2022-08-18T05:29:18.735Z,2.70
2022-08-18T05:30:16.153Z,2.79
2022-08-18T05:31:16.136Z,2.79
2022-08-18T05:32:38.351Z,2.50
2022-08-18T05:33:16.109Z,2.59
2022-08-18T05:34:16.111Z,2.59
2022-08-18T05:35:16.086Z,2.09
2022-08-18T05:36:16.087Z,2.29
2022-08-18T05:37:16.070Z,2.20
2022-08-18T05:38:16.048Z,2.29
2022-08-18T05:39:16.035Z,2.20
2022-08-18T05:40:16.099Z,2.20
2022-08-18T05:41:16.003Z,2.40
2022-08-18T05:42:16.018Z,2.09
2022-08-18T05:43:15.977Z,2.20
2022-08-18T05:44:15.965Z,2.20
2022-08-18T05:45:15.971Z,2.50
2022-08-18T05:46:15.940Z,2.70
2022-08-18T05:47:15.923Z,2.50
2022-08-18T05:48:15.911Z,2.40
2022-08-18T05:49:15.897Z,2.70
2022-08-18T05:50:15.886Z,2.79
2022-08-18T05:51:15.872Z,3.09
2022-08-18T05:52:15.861Z,3.20
2022-08-18T05:53:15.847Z,3.29
2022-08-18T05:54:15.834Z,3.29
2022-08-18T05:55:15.823Z,3.09
2022-08-18T05:56:15.808Z,3.29
2022-08-18T05:57:15.793Z,3.29
2022-08-18T05:58:15.784Z,3.40
2022-08-18T05:59:15.769Z,3.40
2022-08-18T06:00:15.759Z,3.20
2022-08-18T06:01:15.742Z,3.00
2022-08-18T06:02:15.735Z,2.59
2022-08-18T06:03:15.789Z,2.79
2022-08-18T06:04:15.709Z,2.59
2022-08-18T06:05:15.693Z,2.20
2022-08-18T06:06:15.681Z,2.00
2022-08-18T06:07:15.667Z,2.00
2022-08-18T06:08:15.657Z,2.09
2022-08-18T06:09:15.644Z,1.90
2022-08-18T06:10:15.630Z,1.90
2022-08-18T06:11:22.541Z,1.90
2022-08-18T06:12:15.605Z,1.70
2022-08-18T06:13:15.589Z,1.70
2022-08-18T06:14:15.577Z,1.70
2022-08-18T06:15:15.564Z,1.70
2022-08-18T06:16:15.553Z,1.60
2022-08-18T06:17:15.540Z,1.70
2022-08-18T06:18:15.527Z,1.79
2022-08-18T06:19:15.516Z,1.70
2022-08-18T06:20:15.502Z,1.79
2022-08-18T06:21:15.487Z,1.79
2022-08-18T06:22:15.477Z,1.90
2022-08-18T06:23:15.464Z,2.00
2022-08-18T06:24:15.452Z,2.20
2022-08-18T06:25:15.436Z,2.29
2022-08-18T06:26:15.425Z,2.70
2022-08-18T06:27:15.412Z,2.50
2022-08-18T06:28:15.399Z,3.09
2022-08-18T06:29:15.384Z,3.00
2022-08-18T06:30:15.378Z,2.40
2022-08-18T06:31:15.360Z,2.79
2022-08-18T06:32:15.347Z,2.90
2022-08-18T06:33:15.334Z,2.79
2022-08-18T06:34:15.322Z,2.70
2022-08-18T06:35:15.308Z,2.70
2022-08-18T06:36:18.224Z,2.59
2022-08-18T06:37:15.283Z,2.90
2022-08-18T06:38:15.277Z,2.90
2022-08-18T06:39:15.257Z,2.70
2022-08-18T06:40:15.308Z,3.00
2022-08-18T06:41:41.465Z,3.09
2022-08-18T06:42:15.219Z,2.90
2022-08-18T06:43:15.205Z,3.20
2022-08-18T06:44:15.196Z,3.00
2022-08-18T06:45:15.179Z,3.20
2022-08-18T06:46:15.168Z,3.09
2022-08-18T06:47:15.154Z,3.09
2022-08-18T06:48:15.892Z,3.09
2022-08-18T06:49:15.128Z,2.79
2022-08-18T06:50:15.117Z,2.79
2022-08-18T06:51:15.102Z,3.00
2022-08-18T06:52:15.090Z,2.90
2022-08-18T06:53:26.848Z,2.79
2022-08-18T06:54:15.066Z,2.70
2022-08-18T06:55:15.050Z,2.90
2022-08-18T06:56:26.178Z,3.09
2022-08-18T06:57:15.025Z,2.59
2022-08-18T06:58:15.013Z,2.50
2022-08-18T06:59:15.000Z,2.20
2022-08-18T07:00:14.991Z,2.50
2022-08-18T07:01:15.785Z,2.59
2022-08-18T07:02:14.963Z,2.40
2022-08-18T07:03:14.946Z,2.50
2022-08-18T07:04:14.936Z,2.70
2022-08-18T07:05:14.921Z,2.50
2022-08-18T07:06:14.910Z,2.59
2022-08-18T07:07:14.896Z,2.90
2022-08-18T07:08:14.885Z,3.00
2022-08-18T07:09:14.870Z,3.00
2022-08-18T07:10:14.859Z,2.79
2022-08-18T07:11:14.845Z,3.00
2022-08-18T07:12:14.835Z,2.79
2022-08-18T07:13:14.818Z,3.09
2022-08-18T07:14:16.839Z,3.00
2022-08-18T07:15:14.793Z,2.90
2022-08-18T07:16:16.632Z,2.90
2022-08-18T07:18:14.756Z,3.00
2022-08-18T07:19:14.741Z,2.70
2022-08-18T07:20:14.729Z,2.79
2022-08-18T07:21:14.717Z,2.29
2022-08-18T07:22:14.805Z,2.50
2022-08-18T07:23:14.693Z,2.50
2022-08-18T07:24:24.836Z,2.40
2022-08-18T07:25:16.663Z,2.40
2022-08-18T07:26:15.620Z,2.40
2022-08-18T07:27:14.639Z,2.59
2022-08-18T07:28:14.630Z,2.29
2022-08-18T07:29:14.612Z,2.70
2022-08-18T07:30:15.553Z,2.50
2022-08-18T07:31:17.197Z,2.50
2022-08-18T07:32:21.440Z,2.50
2022-08-18T07:33:14.562Z,2.59
2022-08-18T07:34:14.561Z,2.70
2022-08-18T07:35:14.537Z,2.59
2022-08-18T07:36:14.524Z,2.70
2022-08-18T07:37:14.509Z,2.70
2022-08-18T07:38:40.652Z,2.70
2022-08-18T07:39:14.484Z,2.50
2022-08-18T07:40:14.593Z,2.09
2022-08-18T07:41:14.459Z,2.00
2022-08-18T07:42:14.447Z,2.00
2022-08-18T07:43:16.432Z,2.29
2022-08-18T07:44:14.421Z,2.00
2022-08-18T07:45:14.407Z,2.09
2022-08-18T07:46:14.396Z,2.00
2022-08-18T07:47:14.381Z,2.09
2022-08-18T07:48:37.648Z,1.90
2022-08-18T07:49:20.403Z,1.70
2022-08-18T07:50:27.120Z,2.00
2022-08-18T07:51:15.217Z,1.90
2022-08-18T07:52:36.263Z,1.90
2022-08-18T07:53:14.337Z,1.90
2022-08-18T07:54:31.489Z,1.90
2022-08-18T07:55:14.278Z,1.60
2022-08-18T07:56:14.266Z,2.09
2022-08-18T07:57:19.310Z,2.00
2022-08-18T07:58:14.240Z,2.20
2022-08-18T07:59:14.226Z,2.29
2022-08-18T08:00:18.760Z,2.40
2022-08-18T08:01:14.200Z,2.40
2022-08-18T08:02:14.300Z,2.59
2022-08-18T08:03:14.174Z,2.79
2022-08-18T08:04:25.259Z,2.59
2022-08-18T08:05:16.150Z,2.50
2022-08-18T08:06:14.137Z,2.29
2022-08-18T08:07:24.392Z,2.50
2022-08-18T08:08:16.111Z,2.59
2022-08-18T08:09:14.098Z,2.70
2022-08-18T08:10:14.086Z,2.59
2022-08-18T08:11:14.073Z,2.70
2022-08-18T08:12:14.061Z,2.50
2022-08-18T08:13:16.973Z,2.59
2022-08-18T08:14:14.035Z,2.50
2022-08-18T08:15:14.030Z,2.70
2022-08-18T08:16:14.008Z,2.40
2022-08-18T08:17:13.995Z,2.40
2022-08-18T08:18:13.984Z,2.29
2022-08-18T08:19:13.979Z,2.40
2022-08-18T08:20:13.956Z,2.29
2022-08-18T08:21:13.945Z,2.59
2022-08-18T08:22:13.932Z,2.29
2022-08-18T08:23:13.918Z,2.29
2022-08-18T08:24:13.906Z,2.29
2022-08-18T08:25:44.515Z,2.50
2022-08-18T08:26:13.880Z,2.40
2022-08-18T08:27:13.867Z,2.70
2022-08-18T08:28:13.854Z,2.50
2022-08-18T08:29:13.842Z,2.59
2022-08-18T08:30:13.828Z,2.40
2022-08-18T08:31:35.573Z,2.59
2022-08-18T08:32:13.802Z,2.59
2022-08-18T08:33:13.788Z,2.29
2022-08-18T08:34:13.789Z,2.40
2022-08-18T08:35:47.147Z,2.79
2022-08-18T08:36:13.750Z,2.50
2022-08-18T08:37:13.736Z,2.79
2022-08-18T08:38:38.711Z,3.09
2022-08-18T08:39:13.710Z,3.20
2022-08-18T08:40:13.777Z,2.79
2022-08-18T08:41:13.686Z,3.20
2022-08-18T08:42:30.295Z,3.40
2022-08-18T08:43:13.659Z,3.70
2022-08-18T08:44:13.646Z,3.59
2022-08-18T08:45:13.633Z,3.79
2022-08-18T08:46:13.623Z,3.79
2022-08-18T08:47:13.607Z,3.29
2022-08-18T08:48:14.636Z,2.70
2022-08-18T08:49:13.580Z,2.00
2022-08-18T08:50:13.574Z,1.70
2022-08-18T08:51:13.554Z,1.60
2022-08-18T08:52:13.542Z,1.60
2022-08-18T08:53:13.529Z,1.50
2022-08-18T08:54:13.520Z,1.39
2022-08-18T08:55:13.507Z,1.20
2022-08-18T08:56:13.490Z,1.20
2022-08-18T08:57:13.478Z,1.00
2022-08-18T08:58:13.464Z,1.10
2022-08-18T08:59:13.454Z,1.39
2022-08-18T09:00:13.440Z,1.50
2022-08-18T09:01:13.506Z,1.70
2022-08-18T09:02:31.992Z,1.50
2022-08-18T09:03:13.398Z,1.29
2022-08-18T09:04:13.388Z,1.20
2022-08-18T09:05:13.373Z,1.29
2022-08-18T09:06:13.363Z,1.10
2022-08-18T09:07:13.347Z,1.10
2022-08-18T09:08:13.335Z,1.10
2022-08-18T09:09:13.323Z,1.10
2022-08-18T09:10:13.311Z,1.10
2022-08-18T09:11:13.296Z,1.10
2022-08-18T09:12:13.285Z,1.39
2022-08-18T09:13:13.271Z,1.20
2022-08-18T09:14:13.260Z,1.20
2022-08-18T09:15:13.249Z,1.29
2022-08-18T09:16:13.979Z,1.50
2022-08-18T09:17:13.222Z,1.60
2022-08-18T09:18:13.209Z,1.79
2022-08-18T09:19:13.201Z,2.09
2022-08-18T09:20:13.187Z,2.29
2022-08-18T09:21:13.177Z,2.70
2022-08-18T09:22:13.158Z,3.29
2022-08-18T09:23:13.145Z,3.70
2022-08-18T09:24:13.134Z,5.50
2022-08-18T09:25:13.119Z,7.90
2022-08-18T09:26:13.106Z,10.19
2022-08-18T09:27:13.094Z,10.80
2022-08-18T09:28:13.085Z,11.10
2022-08-18T09:29:13.065Z,10.60
2022-08-18T09:30:13.053Z,10.30
2022-08-18T09:31:13.039Z,9.89
2022-08-18T09:32:13.028Z,8.69
2022-08-18T09:33:18.870Z,8.50
2022-08-18T09:34:13.003Z,7.90
2022-08-18T09:35:12.992Z,6.80
2022-08-18T09:36:12.981Z,6.00
2022-08-18T09:37:12.968Z,6.40
2022-08-18T09:38:12.960Z,6.50
2022-08-18T09:39:12.941Z,6.19
2022-08-18T09:40:13.176Z,6.09
2022-08-18T09:41:12.972Z,6.09
2022-08-18T09:42:12.902Z,6.00
2022-08-18T09:43:12.894Z,5.90
2022-08-18T09:44:21.379Z,5.50
2022-08-18T09:45:12.867Z,5.50
2022-08-18T09:47:13.845Z,4.69
2022-08-18T09:48:12.827Z,4.80
2022-08-18T09:49:12.817Z,4.90
2022-08-18T09:50:38.188Z,5.59
2022-08-18T09:51:13.792Z,5.00
2022-08-18T09:52:12.778Z,4.90
2022-08-18T09:53:12.766Z,4.69
2022-08-18T09:54:12.755Z,4.59
2022-08-18T09:55:12.742Z,4.59
2022-08-18T09:56:12.733Z,4.59
2022-08-18T09:57:12.716Z,4.69
2022-08-18T09:58:12.702Z,4.69
2022-08-18T09:59:12.691Z,4.50
2022-08-18T10:00:12.680Z,4.30
2022-08-18T10:01:12.721Z,4.40
2022-08-18T10:02:18.911Z,4.19
2022-08-18T10:03:12.652Z,4.30
2022-08-18T10:04:12.628Z,4.50
2022-08-18T10:05:12.615Z,4.40
2022-08-18T10:06:12.904Z,4.40
2022-08-18T10:07:12.591Z,4.40
2022-08-18T10:08:12.575Z,4.30
2022-08-18T10:09:17.984Z,4.30
2022-08-18T10:10:12.786Z,4.09
2022-08-18T10:11:12.543Z,3.90
2022-08-18T10:12:15.863Z,4.00
2022-08-18T10:13:12.514Z,3.90
2022-08-18T10:14:12.501Z,4.00
2022-08-18T10:15:12.491Z,4.00
2022-08-18T10:16:12.474Z,4.19
2022-08-18T10:17:21.536Z,4.40
2022-08-18T10:18:14.451Z,4.09
2022-08-18T10:19:12.440Z,4.30
2022-08-18T10:21:13.417Z,4.09
2022-08-18T10:22:12.401Z,4.19
2022-08-18T10:23:12.391Z,4.30
2022-08-18T10:24:35.015Z,4.00
2022-08-18T10:25:23.318Z,4.19
2022-08-18T10:26:15.038Z,4.00
2022-08-18T10:27:13.290Z,3.70
2022-08-18T10:28:12.326Z,3.79
2022-08-18T10:29:12.314Z,3.70
2022-08-18T10:30:12.330Z,3.40
2022-08-18T10:31:12.290Z,3.40
2022-08-18T10:32:14.162Z,3.50
2022-08-18T10:33:17.666Z,3.59
2022-08-18T10:35:13.242Z,3.79
2022-08-18T10:36:12.228Z,3.29
2022-08-18T10:37:12.217Z,3.09
2022-08-18T10:38:12.201Z,3.00
2022-08-18T10:39:12.191Z,3.00
2022-08-18T10:40:13.280Z,2.90
2022-08-18T10:41:15.526Z,3.20
2022-08-18T10:42:12.151Z,3.00
2022-08-18T10:44:28.279Z,3.50
2022-08-18T10:45:12.115Z,3.09
2022-08-18T10:46:31.840Z,3.00
2022-08-18T10:47:14.089Z,3.09
2022-08-18T10:48:16.701Z,3.00
2022-08-18T10:49:12.066Z,3.09
2022-08-18T10:50:12.051Z,2.90
2022-08-18T10:52:12.457Z,3.00
2022-08-18T10:53:39.014Z,3.29
2022-08-18T10:54:12.001Z,3.20
2022-08-18T10:55:11.991Z,3.09
2022-08-18T10:56:11.975Z,3.00
2022-08-18T10:57:11.965Z,3.00
2022-08-18T10:58:11.953Z,2.90
2022-08-18T10:59:16.448Z,3.00
2022-08-18T11:00:11.932Z,2.90
2022-08-18T11:01:11.914Z,2.70
2022-08-18T11:02:11.904Z,2.70
2022-08-18T11:03:40.078Z,2.50
2022-08-18T11:04:33.819Z,2.50
2022-08-18T11:05:13.865Z,2.50
2022-08-18T11:06:17.865Z,2.79
2022-08-18T11:07:13.843Z,2.50
2022-08-18T11:08:16.044Z,2.79
2022-08-18T11:09:11.819Z,2.50
2022-08-18T11:10:29.460Z,2.70
2022-08-18T11:11:33.553Z,2.50
2022-08-18T11:12:13.815Z,2.50
2022-08-18T11:13:11.768Z,2.79
2022-08-18T11:14:11.768Z,2.90
2022-08-18T11:16:13.463Z,2.79
2022-08-18T11:17:11.720Z,2.90
2022-08-18T11:19:11.690Z,2.90
2022-08-18T11:20:11.728Z,2.90
2022-08-18T11:21:13.653Z,2.90
2022-08-18T11:22:11.649Z,2.90
2022-08-18T11:23:11.676Z,2.70
2022-08-18T11:24:11.630Z,2.70
2022-08-18T11:25:11.656Z,2.50
2022-08-18T11:26:11.598Z,2.79
2022-08-18T11:27:15.650Z,2.90
2022-08-18T11:28:11.576Z,2.79
2022-08-18T11:29:11.561Z,2.90
2022-08-18T11:31:12.540Z,3.50
2022-08-18T11:32:12.052Z,3.20
2022-08-18T11:33:11.514Z,3.20
2022-08-18T11:34:16.333Z,3.29
2022-08-18T11:35:11.485Z,3.20
2022-08-18T11:36:11.471Z,2.79
2022-08-18T11:37:11.472Z,2.50
2022-08-18T11:38:12.560Z,2.70
2022-08-18T11:39:11.435Z,2.70
2022-08-18T11:40:14.047Z,2.70
2022-08-18T11:41:12.911Z,2.20
2022-08-18T11:43:12.388Z,2.29
2022-08-18T11:44:11.373Z,2.00
2022-08-18T11:45:11.365Z,2.00
2022-08-18T11:46:11.351Z,1.70
2022-08-18T11:47:11.335Z,1.70
2022-08-18T11:48:11.320Z,1.70
2022-08-18T11:49:11.309Z,1.39
2022-08-18T11:50:11.294Z,1.29
2022-08-18T11:51:11.283Z,1.29
2022-08-18T11:52:11.269Z,1.20
2022-08-18T11:53:11.258Z,1.39
2022-08-18T11:54:11.240Z,1.39
2022-08-18T11:55:16.885Z,1.39
2022-08-18T11:56:13.503Z,1.50
2022-08-18T11:57:11.200Z,1.90
2022-08-18T11:58:12.903Z,1.79
2022-08-18T11:59:11.632Z,2.40
2022-08-18T12:00:11.159Z,2.50
2022-08-18T12:01:11.148Z,2.79
2022-08-18T12:02:11.133Z,3.50
2022-08-18T12:03:11.123Z,4.19
2022-08-18T12:04:11.120Z,4.09
2022-08-18T12:05:11.100Z,4.30
2022-08-18T12:06:19.601Z,4.50
2022-08-18T12:07:11.073Z,4.50
2022-08-18T12:08:11.342Z,4.30
2022-08-18T12:09:11.048Z,4.40
2022-08-18T12:10:17.754Z,4.50
2022-08-18T12:11:26.672Z,4.50
2022-08-18T12:12:11.008Z,4.30
2022-08-18T12:13:11.001Z,4.40
2022-08-18T12:14:31.245Z,4.69
2022-08-18T12:15:17.514Z,4.40
2022-08-18T12:16:10.958Z,3.90
2022-08-18T12:17:10.947Z,3.79
2022-08-18T12:18:10.935Z,3.70
2022-08-18T12:19:12.169Z,4.30
2022-08-18T12:20:11.840Z,4.30
2022-08-18T12:21:10.898Z,4.19
2022-08-18T12:22:11.936Z,4.09
2022-08-18T12:23:10.872Z,3.90
2022-08-18T12:24:10.860Z,4.00
2022-08-18T12:25:12.240Z,4.40
2022-08-18T12:26:26.833Z,4.30
2022-08-18T12:28:11.811Z,4.50
2022-08-18T12:29:11.126Z,4.50
2022-08-18T12:30:16.513Z,4.69
2022-08-18T12:31:15.156Z,4.59
2022-08-18T12:32:17.852Z,4.19
2022-08-18T12:35:11.780Z,3.70
2022-08-18T12:36:10.712Z,4.00
2022-08-18T12:37:34.027Z,4.19
2022-08-18T12:38:13.278Z,4.09
2022-08-18T12:39:10.677Z,3.59
2022-08-18T12:40:10.724Z,3.40
2022-08-18T12:41:11.368Z,3.79
2022-08-18T12:42:10.639Z,3.90
2022-08-18T12:43:10.648Z,4.30
2022-08-18T12:45:11.604Z,4.09
2022-08-18T12:46:11.920Z,4.00
2022-08-18T12:47:10.578Z,3.90
2022-08-18T12:48:10.563Z,3.79
2022-08-18T12:49:10.556Z,3.59
2022-08-18T12:50:10.612Z,3.50
2022-08-18T12:51:10.529Z,3.90
2022-08-18T12:53:11.552Z,4.00
2022-08-18T12:54:10.596Z,3.70
2022-08-18T12:55:21.433Z,3.79
2022-08-18T12:56:10.696Z,4.09
2022-08-18T12:57:10.453Z,3.90
2022-08-18T12:58:10.439Z,4.19
2022-08-18T12:59:10.428Z,3.59
2022-08-18T13:00:10.413Z,3.79
2022-08-18T13:01:10.556Z,4.09
2022-08-18T13:02:10.392Z,3.50
2022-08-18T13:03:10.380Z,4.59
2022-08-18T13:04:12.552Z,4.00
2022-08-18T13:05:10.357Z,3.79
2022-08-18T13:06:10.341Z,4.19
2022-08-18T13:07:10.331Z,3.90
2022-08-18T13:08:12.556Z,4.40
2022-08-18T13:09:16.741Z,4.30
2022-08-18T13:10:10.292Z,4.59
2022-08-18T13:11:15.082Z,4.50
2022-08-18T13:12:14.785Z,4.09
2022-08-18T13:13:10.257Z,4.40
2022-08-18T13:14:10.251Z,3.70
2022-08-18T13:15:10.235Z,3.59
2022-08-18T13:16:10.239Z,3.50
2022-08-18T13:17:15.241Z,3.59
2022-08-18T13:18:14.349Z,4.00
2022-08-18T13:19:10.877Z,4.09
2022-08-18T13:20:10.173Z,3.59
2022-08-18T13:21:10.160Z,3.70
2022-08-18T13:22:10.146Z,4.00
2022-08-18T13:23:10.134Z,3.90
2022-08-18T13:24:10.126Z,3.79
2022-08-18T13:25:10.148Z,4.00
2022-08-18T13:26:10.095Z,4.09
2022-08-18T13:27:13.606Z,3.90
2022-08-18T13:28:12.070Z,4.00
2022-08-18T13:29:10.488Z,3.90
2022-08-18T13:30:30.426Z,4.09
2022-08-18T13:31:10.035Z,4.19
2022-08-18T13:32:10.020Z,3.70
2022-08-18T13:33:34.029Z,3.70
2022-08-18T13:34:15.322Z,4.09